This is the latest recevied weather packets stored in our database for station/object OK2CME-6. If no packets are shown the sender has not sent any weather packets the latest 10 day(s).
| Time | Temp. | Humidity | Pressure | Rain* | Wind** | Luminosity | Snow |
|---|---|---|---|---|---|---|---|
| 1777607799 | 7.22° C | 60% | 1030.2 hPa | 0 mm | - | 2 W/m² | - |
| 1777606599 | 6.67° C | 63% | 1030.3 hPa | 0 mm | - | 0 W/m² | - |
| 1777605399 | 6.67° C | 63% | 1030.3 hPa | 0 mm | - | 0 W/m² | - |
| 1777604199 | 6.11° C | 65% | 1030.5 hPa | 0 mm | - | 0 W/m² | - |
| 1777602999 | 5.56° C | 65% | 1030.4 hPa | 0 mm | - | 0 W/m² | - |
| 1777600599 | 5.56° C | 63% | 1030.8 hPa | 0 mm | - | 0 W/m² | - |
| 1777586199 | 6.11° C | 58% | 1031.1 hPa | 0 mm | - | 0 W/m² | - |
| 1777583799 | 6.67° C | 56% | 1030.7 hPa | 0 mm | - | 0 W/m² | - |
| 1777582599 | 7.22° C | 53% | 1030.8 hPa | 0 mm | - | 0 W/m² | - |
| 1777580199 | 6.67° C | 50% | 1030.8 hPa | 0 mm | - | 0 W/m² | - |
| 1777578999 | 7.22° C | 49% | 1031 hPa | 0 mm | - | 0 W/m² | - |
| 1777577799 | 7.78° C | 48% | 1030.6 hPa | 0 mm | - | 0 W/m² | - |
| 1777576599 | 8.33° C | 45% | 1030.5 hPa | 0 mm | - | 0 W/m² | - |
| 1777575399 | 8.33° C | 44% | 1030.4 hPa | 0 mm | - | 0 W/m² | - |
| 1777570599 | 10.56° C | 36% | 1029.9 hPa | 0 mm | - | 26 W/m² | - |
| 1777569399 | 11.11° C | 35% | 1030.2 hPa | 0 mm | - | 35 W/m² | - |
| 1777568199 | 11.11° C | 33% | 1030 hPa | 0 mm | - | 40 W/m² | - |
| 1777566999 | 11.11° C | 33% | 1030 hPa | 0 mm | - | 82 W/m² | - |
| 1777557951 | 11.11° C | 34% | 1030.4 hPa | 0 mm | - | 452 W/m² | - |
| 1777556751 | 10.56° C | 33% | 1030.6 hPa | 0 mm | - | 490 W/m² | - |
| 1777555551 | 11.67° C | 34% | 1030.9 hPa | 0 mm | - | 522 W/m² | - |
| 1777554351 | 10.56° C | 35% | 1031.1 hPa | 0 mm | - | 554 W/m² | - |
| 1777553151 | 10.56° C | 36% | 1031.3 hPa | 0 mm | - | 585 W/m² | - |
| 1777551951 | 10° C | 34% | 1031.2 hPa | 0 mm | - | 605 W/m² | - |
| 1777550751 | 10° C | 37% | 1031.2 hPa | 0 mm | - | 627 W/m² | - |
* Rain latest hour (hover to see other rain measurements)
** Current wind speed in m/s (hover to see current wind gust speed)